createdAt,value
2022-11-15T00:00:10.356Z,10.93
2022-11-15T00:00:19.367Z,10.92
2022-11-15T00:00:29.368Z,10.93
2022-11-15T00:00:40.314Z,10.93
2022-11-15T00:00:50.825Z,10.91
2022-11-15T00:01:00.786Z,10.91
2022-11-15T00:01:09.344Z,10.91
2022-11-15T00:01:19.356Z,10.92
2022-11-15T00:01:30.832Z,10.91
2022-11-15T00:01:39.384Z,10.91
2022-11-15T00:01:49.385Z,10.92
2022-11-15T00:02:00.909Z,10.91
2022-11-15T00:02:09.347Z,10.91
2022-11-15T00:02:19.391Z,10.92
2022-11-15T00:02:29.345Z,10.92
2022-11-15T00:02:39.354Z,10.91
2022-11-15T00:02:49.367Z,10.92
2022-11-15T00:02:59.398Z,10.92
2022-11-15T00:03:09.435Z,10.91
2022-11-15T00:03:19.316Z,10.91
2022-11-15T00:03:29.585Z,10.91
2022-11-15T00:03:39.437Z,10.90
2022-11-15T00:03:49.368Z,10.89
2022-11-15T00:04:00.766Z,10.89
2022-11-15T00:04:09.327Z,10.87
2022-11-15T00:04:20.806Z,10.87
2022-11-15T00:04:29.327Z,10.86
2022-11-15T00:04:39.448Z,10.86
2022-11-15T00:04:49.426Z,10.85
2022-11-15T00:04:59.308Z,10.84
2022-11-15T00:05:09.379Z,10.83
2022-11-15T00:05:19.317Z,10.83
2022-11-15T00:05:29.317Z,10.83
2022-11-15T00:05:39.347Z,10.82
2022-11-15T00:05:49.298Z,10.82
2022-11-15T00:05:59.315Z,10.81
2022-11-15T00:06:09.352Z,10.81
2022-11-15T00:06:19.387Z,10.80
2022-11-15T00:06:29.378Z,10.79
2022-11-15T00:06:39.358Z,10.78
2022-11-15T00:06:49.430Z,10.78
2022-11-15T00:06:59.505Z,10.77
2022-11-15T00:07:14.888Z,10.75
2022-11-15T00:07:48.337Z,10.71
2022-11-15T00:07:54.167Z,10.70
2022-11-15T00:07:55.309Z,10.68
2022-11-15T00:07:56.028Z,10.67
2022-11-15T00:08:03.089Z,10.66
2022-11-15T00:08:12.186Z,10.70
2022-11-15T00:08:22.158Z,10.72
2022-11-15T00:08:32.887Z,10.72
2022-11-15T00:08:43.557Z,10.72
2022-11-15T00:08:52.100Z,10.72
2022-11-15T00:09:03.553Z,10.74
2022-11-15T00:09:13.078Z,10.71
2022-11-15T00:09:22.104Z,10.71
2022-11-15T00:09:33.557Z,10.71
2022-11-15T00:09:46.120Z,10.70
2022-11-15T00:09:52.118Z,10.68
2022-11-15T00:10:03.557Z,10.71
2022-11-15T00:10:13.758Z,10.71
2022-11-15T00:10:23.528Z,10.72
2022-11-15T00:10:32.949Z,10.73
2022-11-15T00:10:43.539Z,10.73
2022-11-15T00:10:52.268Z,10.73
2022-11-15T00:11:02.142Z,10.74
2022-11-15T00:11:12.073Z,10.72
2022-11-15T00:11:23.548Z,10.74
2022-11-15T00:11:32.079Z,10.74
2022-11-15T00:11:42.179Z,10.75
2022-11-15T00:11:52.080Z,10.76
2022-11-15T00:12:03.539Z,10.75
2022-11-15T00:12:12.087Z,10.74
2022-11-15T00:12:22.097Z,10.75
2022-11-15T00:12:32.109Z,10.75
2022-11-15T00:12:42.098Z,10.75
2022-11-15T00:12:53.539Z,10.75
2022-11-15T00:13:02.069Z,10.75
2022-11-15T00:13:13.518Z,10.76
2022-11-15T00:13:22.249Z,10.75
2022-11-15T00:13:33.259Z,10.76
2022-11-15T00:13:43.519Z,10.74
2022-11-15T00:13:52.069Z,10.74
2022-11-15T00:14:02.868Z,10.74
2022-11-15T00:14:13.520Z,10.73
2022-11-15T00:14:22.062Z,10.73
2022-11-15T00:14:32.071Z,10.74
2022-11-15T00:14:42.790Z,10.73
2022-11-15T00:14:53.501Z,10.73
2022-11-15T00:15:02.767Z,10.72
2022-11-15T00:15:12.797Z,10.73
2022-11-15T00:15:22.044Z,10.73
2022-11-15T00:15:32.076Z,10.73
2022-11-15T00:15:42.789Z,10.73
2022-11-15T00:15:52.830Z,10.72
2022-11-15T00:16:02.051Z,10.72
2022-11-15T00:16:12.802Z,10.73
2022-11-15T00:16:22.842Z,10.72
2022-11-15T00:16:32.873Z,10.71
2022-11-15T00:16:42.801Z,10.70
2022-11-15T00:16:52.841Z,10.70
2022-11-15T00:17:02.879Z,10.68
2022-11-15T00:17:12.910Z,10.67
2022-11-15T00:17:22.940Z,10.67
2022-11-15T00:17:32.031Z,10.66
2022-11-15T00:17:42.918Z,10.66
2022-11-15T00:17:52.968Z,10.65
2022-11-15T00:18:02.889Z,10.65
2022-11-15T00:18:12.501Z,10.62
2022-11-15T00:18:22.969Z,10.63
2022-11-15T00:18:33.480Z,10.62
2022-11-15T00:18:47.777Z,10.61
2022-11-15T00:18:53.451Z,10.57
2022-11-15T00:19:04.219Z,10.59
2022-11-15T00:19:12.681Z,10.58
2022-11-15T00:19:23.953Z,10.59
2022-11-15T00:19:33.170Z,10.58
2022-11-15T00:19:43.947Z,10.59
2022-11-15T00:19:52.518Z,10.59
2022-11-15T00:20:02.511Z,10.61
2022-11-15T00:20:12.489Z,10.61
2022-11-15T00:20:22.500Z,10.62
2022-11-15T00:20:33.950Z,10.64
2022-11-15T00:20:43.940Z,10.63
2022-11-15T00:20:53.961Z,10.64
2022-11-15T00:21:03.935Z,10.65
2022-11-15T00:21:13.042Z,10.65
2022-11-15T00:21:22.472Z,10.66
2022-11-15T00:21:33.933Z,10.66
2022-11-15T00:21:43.931Z,10.66
2022-11-15T00:21:52.497Z,10.67
2022-11-15T00:22:03.963Z,10.68
2022-11-15T00:22:12.662Z,10.67
2022-11-15T00:22:23.931Z,10.67
2022-11-15T00:22:33.941Z,10.66
2022-11-15T00:22:43.061Z,10.66
2022-11-15T00:22:53.241Z,10.66
2022-11-15T00:23:03.115Z,10.64
2022-11-15T00:23:13.159Z,10.65
2022-11-15T00:23:22.980Z,10.64
2022-11-15T00:23:33.431Z,10.64
2022-11-15T00:23:43.151Z,10.63
2022-11-15T00:23:52.681Z,10.62
2022-11-15T00:24:03.221Z,10.63
2022-11-15T00:24:13.170Z,10.62
2022-11-15T00:24:23.192Z,10.62
2022-11-15T00:24:33.233Z,10.62
2022-11-15T00:24:43.262Z,10.61
2022-11-15T00:24:52.474Z,10.61
2022-11-15T00:25:03.231Z,10.61
2022-11-15T00:25:13.272Z,10.59
2022-11-15T00:25:23.302Z,10.59
2022-11-15T00:25:32.461Z,10.59
2022-11-15T00:25:43.282Z,10.59
2022-11-15T00:25:53.002Z,10.59
2022-11-15T00:26:03.905Z,10.58
2022-11-15T00:26:13.913Z,10.58
2022-11-15T00:26:23.309Z,10.59
2022-11-15T00:26:33.892Z,10.59
2022-11-15T00:26:43.901Z,10.58
2022-11-15T00:26:53.901Z,10.59
2022-11-15T00:27:07.879Z,10.60
2022-11-15T00:27:14.239Z,10.54
2022-11-15T00:27:24.233Z,10.58
2022-11-15T00:27:32.793Z,10.60
2022-11-15T00:27:42.802Z,10.62
2022-11-15T00:27:54.285Z,10.62
2022-11-15T00:28:03.365Z,10.61
2022-11-15T00:28:13.418Z,10.62
2022-11-15T00:28:24.212Z,10.62
2022-11-15T00:28:33.360Z,10.63
2022-11-15T00:28:43.394Z,10.64
2022-11-15T00:28:53.033Z,10.64
2022-11-15T00:29:03.466Z,10.66
2022-11-15T00:29:13.400Z,10.66
2022-11-15T00:29:23.434Z,10.67
2022-11-15T00:29:33.470Z,10.67
2022-11-15T00:29:42.784Z,10.68
2022-11-15T00:29:53.027Z,10.69
2022-11-15T00:30:03.472Z,10.70
2022-11-15T00:30:13.509Z,10.70
2022-11-15T00:30:23.542Z,10.70
2022-11-15T00:30:33.265Z,10.70
2022-11-15T00:30:43.513Z,10.71
2022-11-15T00:30:53.033Z,10.70
2022-11-15T00:31:03.474Z,10.69
2022-11-15T00:31:13.515Z,10.69
2022-11-15T00:31:22.763Z,10.71
2022-11-15T00:31:34.223Z,10.72
2022-11-15T00:31:43.006Z,10.72
2022-11-15T00:31:54.203Z,10.74
2022-11-15T00:32:04.214Z,10.74
2022-11-15T00:32:13.690Z,10.76
2022-11-15T00:32:22.773Z,10.77
2022-11-15T00:32:34.213Z,10.77
2022-11-15T00:32:44.239Z,10.78
2022-11-15T00:32:52.772Z,10.79
2022-11-15T00:33:04.223Z,10.81
2022-11-15T00:33:12.755Z,10.80
2022-11-15T00:33:24.203Z,10.82
2022-11-15T00:33:33.151Z,10.81
2022-11-15T00:33:42.754Z,10.82
2022-11-15T00:33:52.773Z,10.82
2022-11-15T00:34:04.224Z,10.82
2022-11-15T00:34:13.707Z,10.80
2022-11-15T00:34:24.203Z,10.81
2022-11-15T00:34:34.204Z,10.82
2022-11-15T00:34:42.743Z,10.82
2022-11-15T00:34:52.756Z,10.83
2022-11-15T00:35:04.194Z,10.82
2022-11-15T00:35:14.184Z,10.80
2022-11-15T00:35:22.735Z,10.80
2022-11-15T00:35:34.184Z,10.82
2022-11-15T00:35:44.174Z,10.79
2022-11-15T00:35:52.739Z,10.80
2022-11-15T00:36:02.745Z,10.80
2022-11-15T00:36:14.184Z,10.81
2022-11-15T00:36:22.735Z,10.82
2022-11-15T00:36:32.732Z,10.85
2022-11-15T00:36:42.734Z,10.85
2022-11-15T00:36:54.210Z,10.84
2022-11-15T00:37:04.255Z,10.84
2022-11-15T00:37:13.718Z,10.84
2022-11-15T00:37:24.186Z,10.85
2022-11-15T00:37:34.206Z,10.83
2022-11-15T00:37:44.176Z,10.84
2022-11-15T00:37:52.735Z,10.83
2022-11-15T00:38:02.743Z,10.85
2022-11-15T00:38:13.235Z,10.84
2022-11-15T00:38:24.196Z,10.84
2022-11-15T00:38:32.735Z,10.84
2022-11-15T00:38:42.826Z,10.86
2022-11-15T00:38:52.732Z,10.86
2022-11-15T00:39:02.746Z,10.86
2022-11-15T00:39:13.540Z,10.86
2022-11-15T00:39:24.155Z,10.85
2022-11-15T00:39:32.708Z,10.85
2022-11-15T00:39:44.166Z,10.86
2022-11-15T00:39:53.666Z,10.83
2022-11-15T00:40:04.157Z,10.83
2022-11-15T00:40:12.695Z,10.82
2022-11-15T00:40:24.196Z,10.84
2022-11-15T00:40:34.155Z,10.83
2022-11-15T00:40:44.158Z,10.82
2022-11-15T00:40:54.145Z,10.81
2022-11-15T00:41:06.408Z,10.81
2022-11-15T00:41:12.723Z,10.77
2022-11-15T00:41:24.148Z,10.80
2022-11-15T00:41:32.695Z,10.79
2022-11-15T00:41:42.696Z,10.79
2022-11-15T00:41:53.527Z,10.79
2022-11-15T00:42:03.666Z,10.78
2022-11-15T00:42:14.145Z,10.78
2022-11-15T00:42:22.686Z,10.78
2022-11-15T00:42:33.467Z,10.79
2022-11-15T00:42:42.955Z,10.78
2022-11-15T00:42:52.676Z,10.78
2022-11-15T00:43:02.674Z,10.77
2022-11-15T00:43:12.703Z,10.77
2022-11-15T00:43:24.144Z,10.77
2022-11-15T00:43:33.150Z,10.75
2022-11-15T00:43:42.708Z,10.76
2022-11-15T00:43:54.138Z,10.75
2022-11-15T00:44:03.159Z,10.74
2022-11-15T00:44:14.115Z,10.74
2022-11-15T00:44:24.148Z,10.74
2022-11-15T00:44:32.667Z,10.73
2022-11-15T00:44:44.137Z,10.74
2022-11-15T00:44:52.671Z,10.73
2022-11-15T00:45:02.686Z,10.73
2022-11-15T00:45:12.696Z,10.72
2022-11-15T00:45:24.119Z,10.71
2022-11-15T00:45:32.692Z,10.70
2022-11-15T00:45:44.132Z,10.70
2022-11-15T00:45:54.119Z,10.68
2022-11-15T00:46:04.119Z,10.68
2022-11-15T00:46:12.668Z,10.67
2022-11-15T00:46:24.137Z,10.67
2022-11-15T00:46:34.097Z,10.65
2022-11-15T00:46:44.117Z,10.64
2022-11-15T00:46:53.039Z,10.63
2022-11-15T00:47:04.098Z,10.63
2022-11-15T00:47:13.315Z,10.61
2022-11-15T00:47:24.097Z,10.60
2022-11-15T00:47:34.103Z,10.60
2022-11-15T00:47:44.127Z,10.59
2022-11-15T00:47:52.667Z,10.58
2022-11-15T00:48:03.116Z,10.59
2022-11-15T00:48:12.948Z,10.57
2022-11-15T00:48:22.637Z,10.57
2022-11-15T00:48:33.079Z,10.57
2022-11-15T00:48:43.326Z,10.56
2022-11-15T00:48:52.638Z,10.56
2022-11-15T00:49:03.398Z,10.55
2022-11-15T00:49:13.428Z,10.54
2022-11-15T00:49:22.750Z,10.53
2022-11-15T00:49:34.087Z,10.53
2022-11-15T00:49:43.436Z,10.51
2022-11-15T00:49:52.636Z,10.51
2022-11-15T00:50:04.109Z,10.51
2022-11-15T00:50:15.324Z,10.49
2022-11-15T00:50:22.958Z,10.44
2022-11-15T00:50:34.084Z,10.45
2022-11-15T00:50:42.638Z,10.44
2022-11-15T00:50:53.068Z,10.44
2022-11-15T00:51:02.618Z,10.42
2022-11-15T00:51:14.088Z,10.42
2022-11-15T00:51:23.481Z,10.39
2022-11-15T00:51:32.620Z,10.39
2022-11-15T00:51:44.071Z,10.39
2022-11-15T00:51:52.669Z,10.37
2022-11-15T00:52:02.618Z,10.37
2022-11-15T00:52:14.079Z,10.36
2022-11-15T00:52:24.079Z,10.34
2022-11-15T00:52:32.628Z,10.33
2022-11-15T00:52:42.840Z,10.33
2022-11-15T00:52:53.569Z,10.31
2022-11-15T00:53:04.080Z,10.30
2022-11-15T00:53:14.059Z,10.29
2022-11-15T00:53:22.608Z,10.28
2022-11-15T00:53:34.395Z,10.29
2022-11-15T00:53:44.069Z,10.26
2022-11-15T00:53:52.613Z,10.27
2022-11-15T00:54:04.060Z,10.27
2022-11-15T00:54:12.616Z,10.25
2022-11-15T00:54:22.619Z,10.26
2022-11-15T00:54:33.601Z,10.25
2022-11-15T00:54:42.618Z,10.23
2022-11-15T00:54:52.630Z,10.23
2022-11-15T00:55:04.059Z,10.23
2022-11-15T00:55:12.660Z,10.21
2022-11-15T00:55:22.689Z,10.22
2022-11-15T00:55:32.629Z,10.21
2022-11-15T00:55:42.656Z,10.20
2022-11-15T00:55:53.461Z,10.20
2022-11-15T00:56:04.069Z,10.18
2022-11-15T00:56:12.794Z,10.17
2022-11-15T00:56:22.600Z,10.18
2022-11-15T00:56:32.729Z,10.17
2022-11-15T00:56:42.580Z,10.16
2022-11-15T00:56:52.799Z,10.16
2022-11-15T00:57:02.750Z,10.14
2022-11-15T00:57:12.780Z,10.13
2022-11-15T00:57:22.808Z,10.13
2022-11-15T00:57:32.560Z,10.12
2022-11-15T00:57:42.607Z,10.11
2022-11-15T00:57:54.609Z,10.12
2022-11-15T00:58:04.073Z,10.07
2022-11-15T00:58:14.033Z,10.08
2022-11-15T00:58:23.010Z,10.08
2022-11-15T00:58:32.570Z,10.09
2022-11-15T00:58:42.680Z,10.08
2022-11-15T00:58:53.429Z,10.08
2022-11-15T00:59:02.581Z,10.07
2022-11-15T00:59:12.887Z,10.06
2022-11-15T00:59:24.022Z,10.05
2022-11-15T00:59:33.500Z,10.02
2022-11-15T00:59:44.010Z,10.02
2022-11-15T00:59:54.021Z,10.02
2022-11-15T01:00:02.584Z,10.01
2022-11-15T01:00:12.640Z,10.01
2022-11-15T01:00:24.030Z,10.01
2022-11-15T01:00:34.075Z,10.00
2022-11-15T01:00:44.065Z,9.99
2022-11-15T01:00:52.658Z,9.98
2022-11-15T01:01:02.623Z,9.99
2022-11-15T01:01:12.627Z,9.97
2022-11-15T01:01:23.554Z,9.96
2022-11-15T01:01:34.015Z,9.95
2022-11-15T01:01:44.042Z,9.93
2022-11-15T01:01:52.558Z,9.93
2022-11-15T01:02:02.540Z,9.94
2022-11-15T01:02:14.001Z,9.92
2022-11-15T01:02:24.001Z,9.90
2022-11-15T01:02:34.011Z,9.90
2022-11-15T01:02:44.002Z,9.89
2022-11-15T01:02:53.300Z,9.89
2022-11-15T01:03:04.015Z,9.89
2022-11-15T01:03:12.541Z,9.88
2022-11-15T01:03:22.571Z,9.90
2022-11-15T01:03:32.995Z,9.89
2022-11-15T01:03:42.571Z,9.88
2022-11-15T01:03:58.640Z,9.88
2022-11-15T01:04:04.620Z,9.82
2022-11-15T01:04:14.451Z,9.84
2022-11-15T01:04:25.042Z,9.85
2022-11-15T01:04:35.043Z,9.85
2022-11-15T01:04:45.035Z,9.85
2022-11-15T01:04:54.181Z,9.84
2022-11-15T01:05:05.021Z,9.85
2022-11-15T01:05:14.154Z,9.84
2022-11-15T01:05:25.016Z,9.84
2022-11-15T01:05:34.586Z,9.83
2022-11-15T01:05:44.161Z,9.82
2022-11-15T01:05:55.032Z,9.82
2022-11-15T01:06:05.022Z,9.81
2022-11-15T01:06:13.572Z,9.81
2022-11-15T01:06:25.033Z,9.82
2022-11-15T01:06:35.041Z,9.80
2022-11-15T01:06:43.671Z,9.80
2022-11-15T01:06:55.045Z,9.80
2022-11-15T01:07:05.058Z,9.79
2022-11-15T01:07:14.096Z,9.79
2022-11-15T01:07:25.078Z,9.80
2022-11-15T01:07:35.155Z,9.79
2022-11-15T01:07:43.591Z,9.79
2022-11-15T01:07:53.607Z,9.81
2022-11-15T01:08:03.551Z,9.80
2022-11-15T01:08:15.013Z,9.80
2022-11-15T01:08:24.313Z,9.79
2022-11-15T01:08:34.995Z,9.79
2022-11-15T01:08:45.011Z,9.78
2022-11-15T01:08:55.002Z,9.79
2022-11-15T01:09:04.993Z,9.78
2022-11-15T01:09:13.559Z,9.78
2022-11-15T01:09:25.031Z,9.79
2022-11-15T01:09:34.996Z,9.77
2022-11-15T01:09:43.553Z,9.78
2022-11-15T01:09:53.563Z,9.78
2022-11-15T01:10:04.352Z,9.77
2022-11-15T01:10:14.391Z,9.75
2022-11-15T01:10:24.430Z,9.75
2022-11-15T01:10:33.526Z,9.75
2022-11-15T01:10:44.392Z,9.75
2022-11-15T01:10:54.432Z,9.74
2022-11-15T01:11:03.532Z,9.74
2022-11-15T01:11:14.393Z,9.74
2022-11-15T01:11:23.532Z,9.72
2022-11-15T01:11:35.011Z,9.73
2022-11-15T01:11:44.515Z,9.71
2022-11-15T01:11:53.513Z,9.71
2022-11-15T01:12:03.557Z,9.71
2022-11-15T01:12:13.503Z,9.71
2022-11-15T01:12:23.522Z,9.70
2022-11-15T01:12:34.965Z,9.70
2022-11-15T01:12:43.592Z,9.69
2022-11-15T01:12:53.525Z,9.70
2022-11-15T01:13:03.513Z,9.69
2022-11-15T01:13:13.504Z,9.69
2022-11-15T01:13:24.965Z,9.68
2022-11-15T01:13:33.910Z,9.66
2022-11-15T01:13:43.603Z,9.65
2022-11-15T01:13:53.531Z,9.65
2022-11-15T01:14:03.564Z,9.65
2022-11-15T01:14:14.943Z,9.65
2022-11-15T01:14:25.676Z,9.63
2022-11-15T01:14:33.515Z,9.62
2022-11-15T01:14:44.973Z,9.64
2022-11-15T01:14:54.972Z,9.63
2022-11-15T01:15:04.986Z,9.63
2022-11-15T01:15:13.560Z,9.63
2022-11-15T01:15:23.533Z,9.62
2022-11-15T01:15:33.522Z,9.61
2022-11-15T01:15:44.964Z,9.61
2022-11-15T01:15:54.984Z,9.59
2022-11-15T01:16:03.516Z,9.59
2022-11-15T01:16:13.533Z,9.59
2022-11-15T01:16:23.530Z,9.58
2022-11-15T01:16:33.513Z,9.56
2022-11-15T01:16:45.052Z,9.55
2022-11-15T01:16:53.494Z,9.52
2022-11-15T01:17:03.524Z,9.53
2022-11-15T01:17:14.963Z,9.51
2022-11-15T01:17:24.954Z,9.49
2022-11-15T01:17:33.502Z,9.48
2022-11-15T01:17:44.955Z,9.46
2022-11-15T01:17:54.965Z,9.43
2022-11-15T01:18:03.497Z,9.42
2022-11-15T01:18:14.934Z,9.41
2022-11-15T01:18:24.374Z,9.38
2022-11-15T01:18:34.957Z,9.38
2022-11-15T01:18:44.939Z,9.36
2022-11-15T01:18:54.945Z,9.36
2022-11-15T01:19:04.935Z,9.34
2022-11-15T01:19:14.967Z,9.34
2022-11-15T01:19:24.936Z,9.31
2022-11-15T01:19:33.494Z,9.30
2022-11-15T01:19:44.944Z,9.32
2022-11-15T01:19:54.925Z,9.31
2022-11-15T01:20:04.935Z,9.32
2022-11-15T01:20:14.955Z,9.32
2022-11-15T01:20:24.925Z,9.34
2022-11-15T01:20:33.484Z,9.36
2022-11-15T01:20:44.945Z,9.40
2022-11-15T01:20:54.944Z,9.41
2022-11-15T01:21:03.475Z,9.42
2022-11-15T01:21:14.937Z,9.44
2022-11-15T01:21:24.915Z,9.44
2022-11-15T01:21:34.934Z,9.46
2022-11-15T01:21:44.416Z,9.46
2022-11-15T01:21:54.935Z,9.47
2022-11-15T01:22:03.466Z,9.47
2022-11-15T01:22:14.923Z,9.49
2022-11-15T01:22:24.925Z,9.48
2022-11-15T01:22:34.925Z,9.48
2022-11-15T01:22:44.916Z,9.48
2022-11-15T01:22:53.606Z,9.48
2022-11-15T01:23:04.915Z,9.49
2022-11-15T01:23:14.925Z,9.49
2022-11-15T01:23:24.407Z,9.48
2022-11-15T01:23:35.107Z,9.49
2022-11-15T01:23:44.906Z,9.48
2022-11-15T01:23:54.906Z,9.48
2022-11-15T01:24:04.896Z,9.48
2022-11-15T01:24:14.411Z,9.48
2022-11-15T01:24:24.895Z,9.48
2022-11-15T01:24:33.455Z,9.48
2022-11-15T01:24:44.928Z,9.47
2022-11-15T01:24:54.016Z,9.47
2022-11-15T01:25:04.058Z,9.46
2022-11-15T01:25:14.885Z,9.45
2022-11-15T01:25:23.436Z,9.44
2022-11-15T01:25:33.476Z,9.43
2022-11-15T01:25:44.436Z,9.41
2022-11-15T01:25:53.448Z,9.40
2022-11-15T01:26:04.895Z,9.40
2022-11-15T01:26:14.903Z,9.37
2022-11-15T01:26:24.886Z,9.36
2022-11-15T01:26:33.436Z,9.36
2022-11-15T01:26:43.446Z,9.36
2022-11-15T01:26:53.438Z,9.35
2022-11-15T01:27:03.856Z,9.34
2022-11-15T01:27:14.865Z,9.32
2022-11-15T01:27:24.395Z,9.31
2022-11-15T01:27:34.168Z,9.32
2022-11-15T01:27:43.417Z,9.30
2022-11-15T01:27:54.896Z,9.30
2022-11-15T01:28:04.167Z,9.28
2022-11-15T01:28:14.366Z,9.28
2022-11-15T01:28:24.876Z,9.28
2022-11-15T01:28:33.458Z,9.27
2022-11-15T01:28:44.409Z,9.28
2022-11-15T01:28:54.876Z,9.26
2022-11-15T01:29:04.857Z,9.26
2022-11-15T01:29:14.385Z,9.26
2022-11-15T01:29:24.868Z,9.27
2022-11-15T01:29:34.900Z,9.27
2022-11-15T01:29:43.416Z,9.28
2022-11-15T01:29:54.879Z,9.29
2022-11-15T01:30:03.416Z,9.29
2022-11-15T01:30:13.426Z,9.31
2022-11-15T01:30:24.856Z,9.30
2022-11-15T01:30:33.405Z,9.30
2022-11-15T01:30:43.404Z,9.31
2022-11-15T01:30:54.848Z,9.30
2022-11-15T01:31:03.407Z,9.29
2022-11-15T01:31:14.166Z,9.30
2022-11-15T01:31:24.868Z,9.29
2022-11-15T01:31:33.417Z,9.29
2022-11-15T01:31:43.406Z,9.29
2022-11-15T01:31:54.867Z,9.28
2022-11-15T01:32:03.412Z,9.27
2022-11-15T01:32:14.327Z,9.28
2022-11-15T01:32:24.848Z,9.26
2022-11-15T01:32:34.847Z,9.27
2022-11-15T01:32:44.848Z,9.27
2022-11-15T01:32:54.849Z,9.28
2022-11-15T01:33:04.837Z,9.28
2022-11-15T01:33:14.877Z,9.29
2022-11-15T01:33:23.458Z,9.29
2022-11-15T01:33:34.840Z,9.30
2022-11-15T01:33:44.828Z,9.30
2022-11-15T01:33:53.427Z,9.31
2022-11-15T01:34:03.397Z,9.33
2022-11-15T01:34:14.839Z,9.35
2022-11-15T01:34:23.377Z,9.36
2022-11-15T01:34:33.434Z,9.39
2022-11-15T01:34:44.338Z,9.42
2022-11-15T01:34:54.838Z,9.42
2022-11-15T01:35:03.367Z,9.45
2022-11-15T01:35:13.396Z,9.48
2022-11-15T01:35:23.400Z,9.50
2022-11-15T01:35:33.365Z,9.52
2022-11-15T01:35:43.649Z,9.54
2022-11-15T01:35:54.808Z,9.55
2022-11-15T01:36:04.209Z,9.57
2022-11-15T01:36:14.824Z,9.59
2022-11-15T01:36:23.681Z,9.61
2022-11-15T01:36:34.813Z,9.63
2022-11-15T01:36:44.148Z,9.62
2022-11-15T01:36:54.825Z,9.64
2022-11-15T01:37:03.398Z,9.65
2022-11-15T01:37:13.367Z,9.67
2022-11-15T01:37:23.368Z,9.66
2022-11-15T01:37:33.730Z,9.65
2022-11-15T01:37:44.388Z,9.64
2022-11-15T01:37:54.809Z,9.63
2022-11-15T01:38:03.349Z,9.63
2022-11-15T01:38:13.386Z,9.63
2022-11-15T01:38:24.800Z,9.62
2022-11-15T01:38:33.359Z,9.61
2022-11-15T01:38:43.371Z,9.61
2022-11-15T01:38:54.830Z,9.60
2022-11-15T01:39:03.359Z,9.60
2022-11-15T01:39:13.359Z,9.60
2022-11-15T01:39:24.809Z,9.60
2022-11-15T01:39:33.328Z,9.58
2022-11-15T01:39:43.781Z,9.59
2022-11-15T01:39:53.329Z,9.58
2022-11-15T01:40:03.349Z,9.58
2022-11-15T01:40:13.338Z,9.57
2022-11-15T01:40:23.811Z,9.56
2022-11-15T01:40:33.329Z,9.56
2022-11-15T01:40:43.889Z,9.56
2022-11-15T01:40:53.339Z,9.56
2022-11-15T01:41:03.811Z,9.57
2022-11-15T01:41:13.969Z,9.57
2022-11-15T01:41:23.340Z,9.58
2022-11-15T01:41:34.769Z,9.59
2022-11-15T01:41:43.314Z,9.61
2022-11-15T01:41:53.310Z,9.63
2022-11-15T01:42:03.355Z,9.65
2022-11-15T01:42:14.768Z,9.67
2022-11-15T01:42:23.309Z,9.68
2022-11-15T01:42:33.355Z,9.71
2022-11-15T01:42:43.290Z,9.72
2022-11-15T01:42:53.323Z,9.73
2022-11-15T01:43:03.349Z,9.75
2022-11-15T01:43:14.291Z,9.77
2022-11-15T01:43:24.759Z,9.77
2022-11-15T01:43:33.663Z,9.78
2022-11-15T01:43:44.240Z,9.80
2022-11-15T01:43:53.341Z,9.80
2022-11-15T01:44:03.366Z,9.81
2022-11-15T01:44:14.751Z,9.80
2022-11-15T01:44:24.280Z,9.80
2022-11-15T01:44:34.762Z,9.80
2022-11-15T01:44:43.318Z,9.78
2022-11-15T01:44:54.131Z,9.79
2022-11-15T01:45:03.300Z,9.77
2022-11-15T01:45:13.338Z,9.78
2022-11-15T01:45:23.310Z,9.78
2022-11-15T01:45:33.383Z,9.78
2022-11-15T01:45:43.305Z,9.79
2022-11-15T01:45:54.290Z,9.81
2022-11-15T01:46:03.309Z,9.82
2022-11-15T01:46:14.760Z,9.83
2022-11-15T01:46:23.313Z,9.84
2022-11-15T01:46:34.751Z,9.86
2022-11-15T01:46:43.463Z,9.85
2022-11-15T01:46:53.271Z,9.87
2022-11-15T01:47:03.302Z,9.87
2022-11-15T01:47:13.442Z,9.87
2022-11-15T01:47:23.282Z,9.88
2022-11-15T01:47:34.732Z,9.87
2022-11-15T01:47:43.791Z,9.86
2022-11-15T01:47:53.269Z,9.87
2022-11-15T01:48:03.389Z,9.87
2022-11-15T01:48:14.078Z,9.87
2022-11-15T01:48:23.281Z,9.85
2022-11-15T01:48:33.296Z,9.86
2022-11-15T01:48:44.731Z,9.85
2022-11-15T01:48:54.231Z,9.84
2022-11-15T01:49:04.780Z,9.85
2022-11-15T01:49:13.273Z,9.85
2022-11-15T01:49:23.292Z,9.85
2022-11-15T01:49:34.721Z,9.83
2022-11-15T01:49:44.721Z,9.80
2022-11-15T01:49:54.736Z,9.78
2022-11-15T01:50:03.640Z,9.78
2022-11-15T01:50:13.289Z,9.77
2022-11-15T01:50:24.721Z,9.76
2022-11-15T01:50:33.276Z,9.73
2022-11-15T01:50:43.261Z,9.73
2022-11-15T01:50:53.271Z,9.72
2022-11-15T01:51:03.262Z,9.70
2022-11-15T01:51:13.251Z,9.69
2022-11-15T01:51:23.389Z,9.68
2022-11-15T01:51:34.693Z,9.67
2022-11-15T01:51:44.703Z,9.66
2022-11-15T01:51:54.732Z,9.64
2022-11-15T01:52:03.244Z,9.63
2022-11-15T01:52:13.278Z,9.63
2022-11-15T01:52:23.265Z,9.61
2022-11-15T01:52:34.703Z,9.59
2022-11-15T01:52:44.713Z,9.56
2022-11-15T01:52:54.694Z,9.54
2022-11-15T01:53:04.702Z,9.53
2022-11-15T01:53:14.702Z,9.52
2022-11-15T01:53:24.691Z,9.49
2022-11-15T01:53:34.863Z,9.49
2022-11-15T01:53:44.676Z,9.48
2022-11-15T01:53:54.693Z,9.46
2022-11-15T01:54:04.672Z,9.44
2022-11-15T01:54:14.675Z,9.42
2022-11-15T01:54:24.693Z,9.40
2022-11-15T01:54:33.462Z,9.39
2022-11-15T01:54:44.672Z,9.38
2022-11-15T01:54:54.689Z,9.34
2022-11-15T01:55:04.685Z,9.33
2022-11-15T01:55:13.750Z,9.33
2022-11-15T01:55:24.672Z,9.32
2022-11-15T01:55:33.233Z,9.30
2022-11-15T01:55:44.683Z,9.30
2022-11-15T01:55:54.673Z,9.27
2022-11-15T01:56:03.220Z,9.26
2022-11-15T01:56:14.692Z,9.26
2022-11-15T01:56:24.673Z,9.24
2022-11-15T01:56:34.713Z,9.23
2022-11-15T01:56:43.213Z,9.23
2022-11-15T01:56:54.684Z,9.23
2022-11-15T01:57:04.662Z,9.21
2022-11-15T01:57:14.663Z,9.19
2022-11-15T01:57:23.203Z,9.18
2022-11-15T01:57:34.664Z,9.18
2022-11-15T01:57:44.657Z,9.15
2022-11-15T01:57:54.656Z,9.15
2022-11-15T01:58:04.644Z,9.14
2022-11-15T01:58:14.654Z,9.14
2022-11-15T01:58:24.654Z,9.13
2022-11-15T01:58:34.674Z,9.12
2022-11-15T01:58:44.653Z,9.12
2022-11-15T01:58:53.631Z,9.11
2022-11-15T01:59:03.185Z,9.11
2022-11-15T01:59:13.224Z,9.10
2022-11-15T01:59:23.202Z,9.09
2022-11-15T01:59:33.677Z,9.08
2022-11-15T01:59:43.177Z,9.06
2022-11-15T01:59:54.672Z,9.05
2022-11-15T02:00:04.633Z,9.04
2022-11-15T02:00:13.193Z,9.04
2022-11-15T02:00:24.643Z,9.03
2022-11-15T02:00:34.701Z,9.00
2022-11-15T02:00:44.663Z,9.00
2022-11-15T02:00:53.235Z,8.98
2022-11-15T02:01:03.300Z,8.99
2022-11-15T02:01:14.161Z,8.98
2022-11-15T02:01:23.655Z,8.96
2022-11-15T02:01:33.166Z,8.95
2022-11-15T02:01:43.722Z,8.95
2022-11-15T02:01:53.182Z,8.94
2022-11-15T02:02:04.646Z,8.94
2022-11-15T02:02:13.191Z,8.92
2022-11-15T02:02:23.174Z,8.92
2022-11-15T02:02:34.625Z,8.91
2022-11-15T02:02:43.734Z,8.88
2022-11-15T02:02:53.754Z,8.89
2022-11-15T02:03:03.150Z,8.87
2022-11-15T02:03:14.604Z,8.87
2022-11-15T02:03:23.174Z,8.85
2022-11-15T02:03:33.343Z,8.86
2022-11-15T02:03:44.615Z,8.86
2022-11-15T02:03:53.163Z,8.84
2022-11-15T02:04:03.297Z,8.85
2022-11-15T02:04:13.146Z,8.85
2022-11-15T02:04:23.773Z,8.84
2022-11-15T02:04:34.595Z,8.84
2022-11-15T02:04:43.155Z,8.83
2022-11-15T02:04:53.772Z,8.83
2022-11-15T02:05:04.605Z,8.82
2022-11-15T02:05:13.162Z,8.80
2022-11-15T02:05:23.168Z,8.81
2022-11-15T02:05:33.185Z,8.81
2022-11-15T02:05:43.157Z,8.80
2022-11-15T02:05:53.145Z,8.79
2022-11-15T02:06:04.117Z,8.79
2022-11-15T02:06:14.606Z,8.78
2022-11-15T02:06:24.606Z,8.78
2022-11-15T02:06:33.685Z,8.77
2022-11-15T02:06:44.709Z,8.76
2022-11-15T02:06:54.635Z,8.74
2022-11-15T02:07:03.175Z,8.74
2022-11-15T02:07:14.629Z,8.73
2022-11-15T02:07:24.753Z,8.71
2022-11-15T02:07:34.619Z,8.70
2022-11-15T02:07:44.605Z,8.70
2022-11-15T02:07:53.177Z,8.69
2022-11-15T02:08:03.218Z,8.69
2022-11-15T02:08:13.145Z,8.68
2022-11-15T02:08:23.177Z,8.67
2022-11-15T02:08:33.214Z,8.66
2022-11-15T02:08:44.576Z,8.66
2022-11-15T02:08:53.120Z,8.64
2022-11-15T02:09:03.233Z,8.64
2022-11-15T02:09:13.255Z,8.63
2022-11-15T02:09:23.188Z,8.62
2022-11-15T02:09:33.218Z,8.61
2022-11-15T02:09:43.162Z,8.61
2022-11-15T02:09:53.106Z,8.60
2022-11-15T02:10:03.226Z,8.60
2022-11-15T02:10:13.266Z,8.59
2022-11-15T02:10:23.295Z,8.58
2022-11-15T02:10:33.228Z,8.57
2022-11-15T02:10:43.956Z,8.56
2022-11-15T02:10:53.115Z,8.55
2022-11-15T02:11:04.585Z,8.54
2022-11-15T02:11:13.115Z,8.51